Time;durP1;ratioP1;P1;durP2;ratioP2;P2;SDS_P1;SDS_P2;PMS_P1;PMS_P2;Temp;Humidity;BMP_temperature;BMP_pressure;BME280_temperature;BME280_humidity;BME280_pressure;Samples;Min_cycle;Max_cycle;Signal;HPM_P1;HPM_P2
2022/07/15 00:01:09;;;;;;;3.83;3.30;;;16.90;99.90;18.20;96618.00;;;;5014622;28;20225;-71
2022/07/15 00:03:59;;;;;;;6.37;3.50;;;16.90;99.90;18.50;96617.00;;;;5010419;28;20221;-71
2022/07/15 00:06:48;;;;;;;3.60;3.30;;;17.00;99.90;18.60;96619.00;;;;5005864;28;20202;-70
2022/07/15 00:12:44;;;;;;;3.80;3.40;;;17.00;99.90;17.40;96617.00;;;;5009273;28;20210;-67
2022/07/15 00:15:34;;;;;;;3.23;3.03;;;16.80;99.90;17.80;96615.00;;;;5010889;28;20202;-71
2022/07/15 00:18:22;;;;;;;2.87;2.53;;;16.80;99.90;17.80;96612.00;;;;5007186;28;20217;-72
2022/07/15 00:21:12;;;;;;;3.73;3.37;;;16.70;99.90;18.40;96619.00;;;;5008313;28;20782;-71
2022/07/15 00:24:01;;;;;;;3.13;2.83;;;16.80;99.90;18.70;96611.00;;;;5008865;28;20590;-72
2022/07/15 00:26:50;;;;;;;3.20;2.90;;;16.90;99.90;18.60;96613.00;;;;5008408;28;20190;-72
2022/07/15 00:29:39;;;;;;;4.17;2.97;;;17.10;99.90;18.00;96621.00;;;;5017904;28;20240;-69
2022/07/15 00:32:27;;;;;;;3.27;3.07;;;17.10;99.90;17.50;96620.00;;;;5009309;28;20217;-68
2022/07/15 00:35:16;;;;;;;3.77;3.30;;;16.90;99.90;17.50;96631.00;;;;5009533;28;20202;-70
2022/07/15 00:38:09;;;;;;;4.53;3.27;;;16.80;99.90;18.10;96631.00;;;;5008769;28;20198;-71
2022/07/15 00:41:02;;;;;;;3.80;3.30;;;16.80;99.90;18.50;96634.00;;;;5008915;28;20222;-72
2022/07/15 00:43:50;;;;;;;4.27;3.10;;;16.90;99.90;18.40;96624.00;;;;5012738;28;20204;-69
2022/07/15 00:46:40;;;;;;;3.10;2.80;;;16.90;99.90;18.10;96595.00;;;;5015540;28;20202;-69
2022/07/15 00:49:28;;;;;;;3.63;3.33;;;16.90;99.90;18.70;96607.00;;;;5009659;28;20248;-69
2022/07/15 00:52:19;;;;;;;4.53;3.23;;;17.00;99.90;18.80;96600.00;;;;5008961;28;20206;-68
2022/07/15 00:55:11;;;;;;;3.37;3.07;;;17.20;99.90;18.50;96604.00;;;;5009739;28;20206;-68
2022/07/15 00:58:03;;;;;;;4.03;3.23;;;17.20;99.90;18.50;96610.00;;;;5007532;28;20202;-68
2022/07/15 01:00:52;;;;;;;4.13;3.07;;;17.30;99.90;17.80;96612.00;;;;5007822;28;20228;-71
2022/07/15 01:03:42;;;;;;;3.27;3.07;;;17.10;99.90;18.40;96618.00;;;;5002145;28;20202;-71
2022/07/15 01:06:31;;;;;;;3.27;2.97;;;17.10;99.90;18.80;96617.00;;;;5009143;28;20641;-73
2022/07/15 01:09:21;;;;;;;4.10;3.13;;;17.20;99.90;18.50;96612.00;;;;5007420;28;20237;-73
2022/07/15 01:12:11;;;;;;;2.80;2.60;;;17.20;99.90;18.60;96603.00;;;;5009497;28;21583;-73
2022/07/15 01:15:00;;;;;;;3.50;3.10;;;17.30;99.90;18.60;96615.00;;;;5014001;28;20580;-72
2022/07/15 01:17:49;;;;;;;2.67;2.47;;;17.30;99.90;18.60;96612.00;;;;5003544;28;20198;-72
2022/07/15 01:20:42;;;;;;;3.57;3.27;;;17.30;99.90;17.80;96603.00;;;;5010462;28;20222;-73
2022/07/15 01:23:30;;;;;;;2.80;2.60;;;17.20;99.90;18.40;96592.00;;;;5006555;28;20222;-72
2022/07/15 01:26:19;;;;;;;6.13;3.07;;;17.20;99.90;18.90;96594.00;;;;5008773;28;20213;-73
2022/07/15 01:29:08;;;;;;;3.43;3.13;;;17.20;99.90;18.70;96599.00;;;;5017867;28;20864;-71
2022/07/15 01:31:57;;;;;;;3.57;3.27;;;17.30;99.90;18.30;96604.00;;;;5010245;28;20217;-71
2022/07/15 01:34:48;;;;;;;2.83;2.63;;;17.30;99.90;18.00;96595.00;;;;5007292;28;20681;-68
2022/07/15 01:37:38;;;;;;;5.53;2.63;;;17.20;99.90;17.70;96601.00;;;;5011013;28;20210;-70
2022/07/15 01:40:27;;;;;;;6.27;3.27;;;17.10;99.90;18.40;96592.00;;;;5005390;28;20719;-68
2022/07/15 01:43:15;;;;;;;3.67;3.37;;;17.10;99.90;17.90;96604.00;;;;5029109;28;20233;-68
2022/07/15 01:46:04;;;;;;;5.00;3.00;;;17.00;99.90;18.10;96611.00;;;;5030146;28;20197;-67
2022/07/15 01:52:02;;;;;;;3.03;2.73;;;17.10;99.90;18.70;96598.00;;;;5011879;28;20217;-72
2022/07/15 01:54:53;;;;;;;3.30;3.00;;;17.20;99.90;19.00;96608.00;;;;5012598;28;21032;-73
2022/07/15 01:57:41;;;;;;;4.53;3.30;;;17.30;99.90;19.00;96604.00;;;;5011524;28;20202;-68
2022/07/15 02:00:30;;;;;;;8.97;3.43;;;17.40;99.90;19.20;96602.00;;;;5011369;28;20230;-73
2022/07/15 02:03:19;;;;;;;5.97;2.80;;;17.60;99.90;19.20;96587.00;;;;5017630;28;20237;-73
2022/07/15 02:06:08;;;;;;;4.47;2.93;;;17.70;99.90;19.30;96600.00;;;;5013172;28;20205;-73
2022/07/15 02:08:57;;;;;;;3.00;2.63;;;17.80;99.90;19.20;96611.00;;;;5011548;28;20579;-73
2022/07/15 02:11:47;;;;;;;4.07;3.33;;;17.80;99.90;18.80;96604.00;;;;5011771;28;20205;-73
2022/07/15 02:14:36;;;;;;;3.10;2.90;;;17.70;99.90;18.90;96600.00;;;;5010374;28;20302;-71
2022/07/15 02:17:25;;;;;;;3.17;2.97;;;17.70;99.90;18.90;96615.00;;;;5011961;28;20202;-71
2022/07/15 02:20:13;;;;;;;3.13;2.87;;;17.60;99.90;18.70;96620.00;;;;5025844;28;20225;-73
2022/07/15 02:23:02;;;;;;;3.57;3.27;;;17.60;99.90;18.80;96608.00;;;;5031493;28;20232;-73
2022/07/15 02:25:51;;;;;;;4.53;3.40;;;17.50;99.90;18.70;96607.00;;;;5022592;28;20570;-71
2022/07/15 02:28:42;;;;;;;8.20;3.70;;;17.50;99.90;18.50;96607.00;;;;5009142;28;20680;-73
2022/07/15 02:31:31;;;;;;;3.40;3.10;;;17.40;99.90;18.20;96610.00;;;;5008492;28;20206;-73
2022/07/15 02:34:19;;;;;;;4.80;3.17;;;17.30;99.90;18.20;96610.00;;;;5002007;28;20759;-74
2022/07/15 02:37:08;;;;;;;3.63;3.33;;;17.20;99.90;18.50;96603.00;;;;5010843;28;20202;-70
2022/07/15 02:39:57;;;;;;;3.03;2.73;;;17.20;99.90;18.60;96603.00;;;;5008424;28;20233;-70
2022/07/15 02:42:50;;;;;;;3.60;3.30;;;17.10;99.90;18.80;96603.00;;;;5007723;28;20230;-71
2022/07/15 02:45:41;;;;;;;6.20;3.27;;;17.20;99.90;18.50;96618.00;;;;5012223;28;20682;-71
2022/07/15 02:48:29;;;;;;;4.60;3.00;;;17.20;99.90;17.90;96621.00;;;;4996945;28;20665;-68
2022/07/15 02:51:18;;;;;;;3.53;3.23;;;17.10;99.90;17.60;96638.00;;;;5011935;28;20618;-71
2022/07/15 02:54:07;;;;;;;4.23;3.37;;;16.90;99.90;17.80;96642.00;;;;5011337;28;20209;-73
2022/07/15 02:56:55;;;;;;;4.33;3.87;;;16.80;99.90;18.10;96646.00;;;;5020086;28;20204;-74
2022/07/15 02:59:44;;;;;;;3.87;3.57;;;16.80;99.90;18.30;96655.00;;;;5015845;28;20689;-73
2022/07/15 03:02:34;;;;;;;5.33;4.13;;;17.10;99.90;17.80;96656.00;;;;5005702;28;20241;-68
2022/07/15 03:05:23;;;;;;;3.50;3.20;;;16.80;99.90;17.50;96671.00;;;;5011303;28;20704;-69
2022/07/15 03:08:12;;;;;;;4.20;3.80;;;16.80;99.90;17.90;96678.00;;;;5010166;28;20241;-72
2022/07/15 03:11:00;;;;;;;3.60;3.27;;;16.80;99.90;18.20;96687.00;;;;5011953;28;20245;-73
2022/07/15 03:13:49;;;;;;;3.10;2.80;;;16.90;99.90;18.30;96704.00;;;;5008880;28;20214;-71
2022/07/15 03:16:38;;;;;;;4.77;3.63;;;16.90;99.90;18.40;96710.00;;;;5004828;28;20198;-71
2022/07/15 03:19:28;;;;;;;3.90;2.90;;;17.00;99.90;18.80;96702.00;;;;5001904;28;20222;-72
2022/07/15 03:22:17;;;;;;;4.90;4.33;;;17.10;99.90;18.70;96733.00;;;;5009525;28;20206;-73
2022/07/15 03:25:07;;;;;;;3.83;3.53;;;17.20;99.90;18.40;96758.00;;;;5023065;28;20692;-73
2022/07/15 03:27:56;;;;;;;2.50;2.30;;;17.20;99.90;18.20;96786.00;;;;5013860;28;20551;-74
2022/07/15 03:30:44;;;;;;;5.13;3.27;;;17.10;99.90;18.00;96793.00;;;;5052452;22;20237;-85
2022/07/15 03:33:33;;;;;;;4.53;3.10;;;17.00;99.90;18.40;96797.00;;;;5062587;28;20196;-89
2022/07/15 03:36:24;;;;;;;3.43;3.13;;;17.00;99.90;18.60;96784.00;;;;5074037;28;20215;-87
2022/07/15 03:39:13;;;;;;;6.20;3.27;;;17.00;99.90;18.70;96797.00;;;;5073247;28;20212;-87
2022/07/15 03:42:02;;;;;;;3.60;3.30;;;17.10;99.90;18.60;96804.00;;;;5074248;28;20212;-87
2022/07/15 03:44:51;;;;;;;3.70;3.10;;;17.10;99.90;18.70;96802.00;;;;5073635;28;20216;-87
2022/07/15 03:47:40;;;;;;;3.53;3.23;;;17.20;99.90;18.50;96797.00;;;;5063166;28;20224;-88
2022/07/15 03:50:29;;;;;;;3.30;3.00;;;17.20;99.90;18.40;96794.00;;;;5059003;28;20577;-88
2022/07/15 03:53:19;;;;;;;4.80;3.03;;;17.20;99.90;18.50;96794.00;;;;5059452;28;20660;-89
2022/07/15 03:56:08;;;;;;;3.77;3.40;;;17.20;99.90;18.60;96788.00;;;;5058512;28;20211;-88
2022/07/15 03:58:57;;;;;;;4.03;2.90;;;17.20;99.90;18.80;96786.00;;;;5066873;28;20200;-88
2022/07/15 04:01:46;;;;;;;4.17;3.77;;;17.30;99.90;18.90;96793.00;;;;5072426;28;20205;-88
2022/07/15 04:04:35;;;;;;;4.53;2.47;;;17.30;99.90;18.80;96797.00;;;;5071718;28;20223;-88
2022/07/15 04:07:23;;;;;;;4.30;3.80;;;17.40;99.90;18.50;96791.00;;;;5055565;28;20231;-89
2022/07/15 04:10:14;;;;;;;5.47;3.93;;;17.40;99.90;18.70;96791.00;;;;5070987;28;20208;-88
2022/07/15 04:13:03;;;;;;;2.83;2.57;;;17.40;99.90;19.00;96792.00;;;;5080172;28;20211;-88
2022/07/15 04:15:52;;;;;;;3.57;3.10;;;17.40;99.90;18.50;96791.00;;;;5077979;28;20200;-84
2022/07/15 04:18:41;;;;;;;5.33;3.57;;;17.40;99.90;18.90;96799.00;;;;5079019;28;20211;-87
2022/07/15 04:21:30;;;;;;;3.23;2.93;;;17.40;99.90;19.20;96790.00;;;;5057843;28;20465;-87
2022/07/15 04:24:19;;;;;;;5.83;3.57;;;17.50;99.90;19.10;96784.00;;;;5058172;28;20224;-87
2022/07/15 04:27:12;;;;;;;4.67;4.23;;;17.60;99.90;19.00;96791.00;;;;5055262;28;20224;-87
2022/07/15 04:30:01;;;;;;;4.77;3.77;;;17.60;99.90;19.00;96808.00;;;;5056308;28;20203;-89
2022/07/15 04:32:50;;;;;;;4.47;3.77;;;17.60;99.90;18.90;96816.00;;;;5069827;28;20200;-89
2022/07/15 04:35:39;;;;;;;3.67;3.37;;;17.60;99.90;19.00;96826.00;;;;5078576;28;20234;-87
2022/07/15 04:38:28;;;;;;;3.67;3.37;;;17.60;99.90;19.10;96830.00;;;;5078892;28;20239;-88
2022/07/15 04:41:17;;;;;;;3.13;2.83;;;17.70;99.90;19.40;96847.00;;;;5081106;28;20199;-87
2022/07/15 04:44:07;;;;;;;8.87;3.17;;;17.70;99.90;19.40;96860.00;;;;5077758;28;20283;-88
2022/07/15 04:46:56;;;;;;;3.30;3.00;;;17.90;99.90;19.20;96865.00;;;;5072265;28;20254;-86
2022/07/15 04:52:59;;;;;;;4.70;3.30;;;17.90;99.90;19.70;96852.00;;;;5022542;28;20223;-88
2022/07/15 04:55:48;;;;;;;2.90;2.70;;;18.00;99.90;20.10;96838.00;;;;5055467;28;20215;-87
2022/07/15 04:58:37;;;;;;;3.17;2.70;;;18.10;99.90;20.30;96847.00;;;;5059686;28;20196;-85
2022/07/15 05:01:27;;;;;;;3.77;3.37;;;18.30;99.90;20.30;96839.00;;;;5063548;28;20204;-86
2022/07/15 05:04:17;;;;;;;4.27;3.40;;;18.40;99.90;20.30;96838.00;;;;5057119;28;20366;-87
2022/07/15 05:07:07;;;;;;;6.77;3.80;;;18.50;99.90;20.60;96842.00;;;;5055038;28;20221;-86
2022/07/15 05:09:55;;;;;;;2.83;2.63;;;18.70;99.90;20.20;96843.00;;;;5055903;28;20275;-88
2022/07/15 05:12:44;;;;;;;3.10;2.90;;;18.70;99.90;19.80;96847.00;;;;5054618;28;20208;-87
2022/07/15 05:15:34;;;;;;;3.73;3.43;;;18.70;99.90;20.10;96853.00;;;;5058593;28;20212;-88
2022/07/15 05:18:25;;;;;;;3.20;3.00;;;18.70;99.90;20.30;96847.00;;;;5060869;28;20220;-90
2022/07/15 05:21:13;;;;;;;3.97;3.60;;;18.80;99.90;20.30;96866.00;;;;5063831;28;20203;-87
2022/07/15 05:24:04;;;;;;;3.53;3.00;;;18.80;99.90;20.70;96872.00;;;;5059539;28;20255;-87
2022/07/15 05:27:13;;;;;;;3.60;2.93;;;18.90;99.90;21.20;96877.00;;;;5060202;28;20292;-89
2022/07/15 05:30:02;;;;;;;4.27;2.93;;;19.10;99.90;21.50;96881.00;;;;5060937;28;20204;-89
2022/07/15 05:32:51;;;;;;;3.43;3.13;;;19.30;99.90;21.10;96879.00;;;;5072044;28;20571;-86
2022/07/15 05:35:41;;;;;;;5.60;2.97;;;19.40;99.90;21.30;96883.00;;;;5079027;28;20214;-86
2022/07/15 05:38:30;;;;;;;8.50;3.67;;;19.50;99.90;21.60;96903.00;;;;5078553;28;20227;-86
2022/07/15 05:41:19;;;;;;;3.93;3.63;;;19.70;99.90;21.80;96899.00;;;;5081380;28;20322;-87
2022/07/15 05:44:07;;;;;;;3.60;3.30;;;19.80;99.90;22.10;96910.00;;;;5079741;28;20227;-87
2022/07/15 05:46:57;;;;;;;4.23;3.23;;;19.90;99.90;21.90;96916.00;;;;5079482;28;20599;-87
2022/07/15 05:49:45;;;;;;;3.80;3.30;;;20.10;99.90;21.60;96918.00;;;;5079418;28;20233;-87
2022/07/15 05:52:36;;;;;;;3.67;3.37;;;20.10;99.90;22.00;96911.00;;;;5078883;28;20200;-85
2022/07/15 05:55:24;;;;;;;5.20;3.50;;;20.20;99.90;22.10;96912.00;;;;5080525;28;20200;-86
2022/07/15 05:58:13;;;;;;;3.87;3.50;;;20.30;99.90;22.10;96909.00;;;;5079851;28;20224;-87
2022/07/15 06:01:03;;;;;;;5.83;3.90;;;20.40;99.90;22.30;96913.00;;;;5076212;28;20684;-86
2022/07/15 06:03:52;;;;;;;5.67;3.77;;;20.50;99.90;22.70;96917.00;;;;5071351;28;20201;-87
2022/07/15 06:06:41;;;;;;;6.33;5.13;;;20.50;99.90;22.60;96922.00;;;;5078402;28;20302;-87
2022/07/15 06:09:31;;;;;;;9.73;6.60;;;20.70;99.90;22.90;96917.00;;;;5074879;28;20207;-86
2022/07/15 06:12:20;;;;;;;9.30;7.73;;;20.80;99.90;22.60;96918.00;;;;5072430;28;20212;-87
2022/07/15 06:15:10;;;;;;;14.87;9.30;;;21.00;99.90;22.20;96921.00;;;;5070727;28;20207;-88
2022/07/15 06:17:59;;;;;;;12.73;8.47;;;20.90;99.90;22.10;96937.00;;;;5071934;28;20227;-88
2022/07/15 06:20:48;;;;;;;14.00;8.90;;;20.80;99.90;22.10;96935.00;;;;5079150;28;20205;-87
2022/07/15 06:23:37;;;;;;;13.93;8.83;;;20.80;99.90;22.50;96930.00;;;;5078283;28;20196;-88
2022/07/15 06:26:27;;;;;;;13.17;8.93;;;20.80;99.90;22.70;96934.00;;;;5077242;28;20204;-87
2022/07/15 06:29:16;;;;;;;13.93;9.17;;;20.80;99.90;22.70;96926.00;;;;5086336;28;20193;-87
2022/07/15 06:32:07;;;;;;;10.73;6.23;;;20.80;99.90;22.80;96933.00;;;;5071389;28;20216;-88
2022/07/15 06:34:56;;;;;;;11.40;5.70;;;20.90;99.90;22.90;96937.00;;;;5077506;28;20205;-89
2022/07/15 06:37:45;;;;;;;9.63;7.47;;;21.00;99.90;22.60;96937.00;;;;5085881;28;20231;-88
2022/07/15 06:40:33;;;;;;;7.63;5.90;;;21.00;99.90;22.90;96927.00;;;;5079414;28;20215;-87
2022/07/15 06:43:24;;;;;;;6.63;4.13;;;21.10;99.90;23.10;96929.00;;;;5068769;28;20569;-88
2022/07/15 06:46:13;;;;;;;4.80;3.40;;;21.20;99.90;23.20;96927.00;;;;5081088;28;20221;-87
2022/07/15 06:49:02;;;;;;;5.73;4.07;;;21.30;99.90;23.30;96933.00;;;;5075073;28;20203;-87
2022/07/15 06:51:51;;;;;;;5.47;4.00;;;21.30;99.90;23.40;96933.00;;;;5073537;28;20212;-88
2022/07/15 06:54:40;;;;;;;10.67;4.00;;;21.50;99.90;23.30;96946.00;;;;5069431;28;20207;-87
2022/07/15 06:57:29;;;;;;;3.53;3.23;;;21.50;99.90;23.30;96951.00;;;;5078130;28;20301;-88
2022/07/15 07:00:20;;;;;;;5.40;3.60;;;21.50;99.90;23.40;96946.00;;;;5082672;28;20552;-87
2022/07/15 07:03:08;;;;;;;4.20;3.80;;;21.60;99.90;23.50;96944.00;;;;5083272;28;20196;-87
2022/07/15 07:05:58;;;;;;;4.90;2.60;;;21.60;99.90;23.50;96950.00;;;;5078921;28;20239;-87
2022/07/15 07:08:47;;;;;;;6.27;3.20;;;21.70;99.90;23.50;96956.00;;;;5068389;28;20279;-88
2022/07/15 07:11:36;;;;;;;5.00;3.80;;;21.70;99.90;23.60;96960.00;;;;5073462;28;20200;-87
2022/07/15 07:14:25;;;;;;;4.63;3.80;;;21.70;99.90;23.60;96957.00;;;;5079199;28;20193;-87
2022/07/15 07:17:16;;;;;;;7.77;3.50;;;21.80;99.90;23.70;96962.00;;;;5071161;28;20213;-86
2022/07/15 07:20:06;;;;;;;4.80;3.33;;;21.80;99.90;23.80;96954.00;;;;5080472;28;20199;-87
2022/07/15 07:22:55;;;;;;;4.20;3.37;;;21.90;99.90;23.90;96961.00;;;;5069033;28;20270;-87
2022/07/15 07:25:43;;;;;;;4.83;3.30;;;22.00;99.90;23.80;96967.00;;;;5067584;28;20236;-86
2022/07/15 07:28:32;;;;;;;4.57;3.60;;;22.00;99.90;23.80;96970.00;;;;5077120;28;20220;-87
2022/07/15 07:31:25;;;;;;;7.33;3.87;;;22.00;99.90;24.00;96961.00;;;;5073874;28;20464;-87
2022/07/15 07:34:16;;;;;;;5.93;3.83;;;22.10;99.90;24.10;96972.00;;;;5066654;28;20204;-87
2022/07/15 07:37:05;;;;;;;9.40;3.77;;;22.20;99.90;24.20;96977.00;;;;5066130;28;20212;-86
2022/07/15 07:39:54;;;;;;;4.67;3.73;;;22.20;99.90;24.40;96977.00;;;;5070618;28;20208;-86
2022/07/15 07:42:43;;;;;;;6.37;3.60;;;22.30;99.90;24.40;96975.00;;;;5062085;28;20200;-87
2022/07/15 07:45:32;;;;;;;8.63;3.57;;;22.40;99.90;24.50;96980.00;;;;5067358;28;21032;-87
2022/07/15 07:48:22;;;;;;;8.43;4.67;;;22.50;99.90;24.50;96985.00;;;;5077164;28;20223;-87
2022/07/15 07:51:12;;;;;;;6.77;3.73;;;22.50;99.90;24.30;96985.00;;;;5074502;28;20202;-87
2022/07/15 07:54:01;;;;;;;6.73;4.33;;;22.60;99.90;24.30;96992.00;;;;5068430;28;20596;-87
2022/07/15 07:56:49;;;;;;;6.33;3.53;;;22.60;99.90;24.40;96993.00;;;;5070313;28;20216;-87
2022/07/15 07:59:38;;;;;;;5.83;3.20;;;22.60;99.90;24.40;96993.00;;;;5073790;28;20208;-86
2022/07/15 08:02:27;;;;;;;3.40;2.93;;;22.50;99.90;24.40;96991.00;;;;5080780;28;20649;-87
2022/07/15 08:05:17;;;;;;;8.63;3.33;;;22.50;99.90;24.50;96988.00;;;;5075739;28;20228;-87
2022/07/15 08:08:16;;;;;;;4.50;4.10;;;22.60;99.90;24.50;97000.00;;;;5072041;28;20318;-87
2022/07/15 08:11:06;;;;;;;11.70;4.43;;;22.60;99.90;24.50;96987.00;;;;5079482;28;20198;-87
2022/07/15 08:13:55;;;;;;;7.00;4.07;;;22.70;99.90;24.60;96986.00;;;;5073974;28;20207;-87
2022/07/15 08:16:45;;;;;;;8.77;5.23;;;22.70;99.90;24.60;96997.00;;;;5074246;28;20224;-87
2022/07/15 08:19:34;;;;;;;3.50;3.20;;;22.70;99.90;24.70;96988.00;;;;5072770;28;20210;-87
2022/07/15 08:22:23;;;;;;;8.00;4.33;;;22.80;99.90;24.80;96993.00;;;;5070923;28;20212;-87
2022/07/15 08:25:13;;;;;;;8.40;3.80;;;22.90;99.90;24.70;96985.00;;;;5066684;28;20572;-87
2022/07/15 08:28:02;;;;;;;6.37;5.00;;;22.90;99.90;24.70;96992.00;;;;5072817;28;20215;-87
2022/07/15 08:30:51;;;;;;;6.70;3.60;;;22.90;99.90;24.80;97000.00;;;;5068229;28;20210;-87
2022/07/15 08:33:40;;;;;;;5.50;3.50;;;22.90;99.90;24.80;96993.00;;;;5067444;28;20212;-87
2022/07/15 08:36:29;;;;;;;4.63;3.47;;;23.00;99.90;24.90;97014.00;;;;5071519;28;20208;-88
2022/07/15 08:39:18;;;;;;;4.30;2.97;;;23.00;99.90;24.70;97002.00;;;;5075218;28;20207;-87
2022/07/15 08:42:08;;;;;;;5.20;3.40;;;23.00;99.90;24.60;97015.00;;;;5066643;28;20205;-87
2022/07/15 08:44:58;;;;;;;6.23;2.97;;;22.90;99.90;24.60;97018.00;;;;5076107;28;20203;-88
2022/07/15 08:47:48;;;;;;;6.03;3.20;;;22.90;99.90;24.60;97014.00;;;;5079349;28;20227;-87
2022/07/15 08:50:44;;;;;;;3.03;2.73;;;22.80;99.90;24.70;97006.00;;;;5071545;28;20638;-89
2022/07/15 08:53:33;;;;;;;5.57;3.07;;;22.80;99.90;24.80;97007.00;;;;5074025;28;20211;-87
2022/07/15 08:56:23;;;;;;;5.20;3.00;;;22.90;99.90;25.00;97009.00;;;;5070864;28;20204;-87
2022/07/15 08:59:13;;;;;;;4.70;3.00;;;23.00;99.90;25.20;97018.00;;;;5067924;28;20200;-86
2022/07/15 09:02:02;;;;;;;2.90;2.70;;;23.10;99.90;25.30;97024.00;;;;5079577;28;20699;-87
2022/07/15 09:05:22;;;;;;;4.10;2.73;;;23.20;99.90;25.40;97035.00;;;;5066021;28;20207;-87
2022/07/15 09:08:15;;;;;;;3.33;2.57;;;23.30;99.90;25.30;97038.00;;;;5063574;28;20592;-88
2022/07/15 09:11:06;;;;;;;5.60;3.23;;;23.40;99.90;25.10;97032.00;;;;5062552;28;20203;-89
2022/07/15 09:13:55;;;;;;;6.70;3.10;;;23.40;99.90;25.40;97023.00;;;;5064104;28;20198;-87
2022/07/15 09:16:45;;;;;;;3.40;2.90;;;23.40;99.90;25.20;97016.00;;;;5056496;28;20281;-89
2022/07/15 09:20:08;;;;;;;6.17;3.87;;;23.40;99.90;25.60;97020.00;;;;5061063;28;20205;-88
2022/07/15 09:22:57;;;;;;;3.83;2.80;;;23.60;99.90;26.10;97026.00;;;;5063867;28;20204;-88
2022/07/15 09:25:46;;;;;;;4.77;3.33;;;23.80;99.90;26.40;97023.00;;;;5064771;28;20231;-88
2022/07/15 09:28:40;;;;;;;4.27;2.33;;;24.00;99.90;26.60;97015.00;;;;5062083;28;20233;-87
2022/07/15 09:35:03;;;;;;;4.47;3.73;;;24.60;99.90;27.40;97024.00;;;;5062167;28;20241;-87
2022/07/15 09:38:00;;;;;;;5.07;3.03;;;25.00;99.90;27.20;97017.00;;;;5065055;28;20228;-88
2022/07/15 09:40:49;;;;;;;5.53;2.87;;;25.20;99.90;27.20;97024.00;;;;5061421;28;20239;-89
2022/07/15 09:43:57;;;;;;;2.70;2.50;;;25.20;99.90;26.60;97038.00;;;;5061499;28;20266;-89
2022/07/15 09:46:50;;;;;;;8.07;3.23;;;25.30;99.90;26.70;97045.00;;;;5062209;28;20231;-88
2022/07/15 09:49:41;;;;;;;3.80;3.17;;;25.20;99.90;26.80;97022.00;;;;5061583;28;20207;-88
2022/07/15 09:52:47;;;;;;;4.83;3.10;;;25.10;99.90;26.40;97001.00;;;;5065721;28;20214;-83
2022/07/15 09:55:37;;;;;;;6.17;3.20;;;25.30;99.90;26.90;96998.00;;;;5067832;28;20215;-85
2022/07/15 09:58:27;;;;;;;4.03;2.87;;;25.60;99.90;29.00;97028.00;;;;5066729;28;20221;-83
2022/07/15 10:01:16;;;;;;;5.90;3.60;;;26.00;99.90;28.60;97037.00;;;;5069971;28;20213;-83
2022/07/15 10:04:06;;;;;;;4.07;2.70;;;26.20;99.90;27.80;97044.00;;;;5066258;28;20212;-85
2022/07/15 10:06:59;;;;;;;5.27;3.50;;;26.30;99.90;26.30;97040.00;;;;5067427;28;20233;-87
2022/07/15 10:10:09;;;;;;;5.30;3.33;;;26.10;99.90;25.70;97044.00;;;;5070847;28;20202;-84
2022/07/15 10:13:16;;;;;;;5.13;3.20;;;25.70;99.90;26.50;97041.00;;;;5068954;28;20215;-86
2022/07/15 10:16:22;;;;;;;4.10;2.77;;;25.40;99.90;26.70;97023.00;;;;5070488;28;20206;-86
2022/07/15 10:19:22;;;;;;;4.73;3.00;;;25.30;99.90;27.30;97027.00;;;;5074047;28;20202;-87
2022/07/15 10:22:31;;;;;;;4.93;3.43;;;25.30;99.90;27.40;97034.00;;;;5074472;28;20215;-86
2022/07/15 10:25:39;;;;;;;3.27;2.97;;;25.40;99.90;28.10;97033.00;;;;5072768;28;20233;-87
2022/07/15 10:28:43;;;;;;;3.93;2.73;;;25.60;99.90;28.30;97023.00;;;;5069247;28;20238;-87
2022/07/15 10:31:34;;;;;;;3.93;3.23;;;25.90;99.90;28.90;97018.00;;;;5069753;28;20236;-87
2022/07/15 10:34:23;;;;;;;5.10;3.17;;;26.20;99.90;29.10;97005.00;;;;5066672;28;20202;-86
2022/07/15 10:37:14;;;;;;;2.87;2.57;;;26.60;99.90;29.60;97017.00;;;;5073526;28;20773;-86
2022/07/15 10:40:07;;;;;;;2.63;2.40;;;27.00;99.90;29.90;97031.00;;;;5063976;28;20218;-87
2022/07/15 10:43:01;;;;;;;4.93;3.00;;;27.20;99.90;29.50;97034.00;;;;5065235;28;20206;-87
2022/07/15 10:46:06;;;;;;;3.70;3.03;;;27.40;99.90;29.20;97040.00;;;;5063779;28;20749;-86
2022/07/15 10:49:28;;;;;;;4.47;2.57;;;27.40;99.90;29.30;97039.00;;;;5062892;28;20211;-87
2022/07/15 10:52:22;;;;;;;4.47;3.17;;;27.30;99.90;29.00;97038.00;;;;5067431;28;20219;-87
2022/07/15 10:55:12;;;;;;;2.80;2.60;;;27.20;99.90;28.70;97040.00;;;;5067141;28;20205;-88
2022/07/15 10:58:04;;;;;;;5.30;2.93;;;27.10;99.90;28.60;97046.00;;;;5064809;28;20521;-88
2022/07/15 11:00:53;;;;;;;3.07;2.80;;;27.00;99.90;28.40;97044.00;;;;5062040;28;20212;-88
2022/07/15 11:04:13;;;;;;;5.53;2.90;;;26.80;99.90;28.20;97042.00;;;;5064639;28;20206;-88
2022/07/15 11:07:35;;;;;;;3.10;2.40;;;26.60;99.90;28.00;97042.00;;;;5060793;28;20226;-88
2022/07/15 11:10:25;;;;;;;7.30;3.30;;;26.40;99.90;27.80;97036.00;;;;5059996;28;20205;-88
2022/07/15 11:13:14;;;;;;;4.37;2.90;;;26.30;99.90;27.10;97039.00;;;;5064872;28;20194;-88
2022/07/15 11:16:03;;;;;;;4.57;2.90;;;26.10;99.90;26.70;97029.00;;;;5069573;28;20204;-87
2022/07/15 11:18:54;;;;;;;3.00;2.80;;;25.80;99.90;26.30;97024.00;;;;5071292;28;20268;-87
2022/07/15 11:21:50;;;;;;;7.90;3.47;;;25.60;99.90;26.80;97035.00;;;;5066431;28;20480;-88
2022/07/15 11:24:40;;;;;;;3.40;3.10;;;25.40;99.90;27.00;97033.00;;;;5063592;28;20210;-88
2022/07/15 11:27:29;;;;;;;2.83;2.57;;;25.30;99.90;27.10;97033.00;;;;5060367;28;20239;-88
2022/07/15 11:30:19;;;;;;;3.60;3.20;;;25.20;99.90;27.10;97027.00;;;;5065149;28;20233;-88
2022/07/15 11:33:11;;;;;;;3.70;3.27;;;25.30;99.90;27.00;97036.00;;;;5065026;28;20216;-88
2022/07/15 11:36:02;;;;;;;2.97;2.77;;;25.20;99.90;27.00;97033.00;;;;5061777;28;20216;-90
2022/07/15 11:38:51;;;;;;;3.50;3.20;;;25.20;99.90;27.00;97038.00;;;;5065419;28;20294;-89
2022/07/15 11:45:00;;;;;;;5.13;3.17;;;25.20;99.90;26.00;97029.00;;;;5060680;28;20210;-88
2022/07/15 11:47:54;;;;;;;3.20;2.90;;;25.00;99.90;26.00;97038.00;;;;5066056;28;20277;-88
2022/07/15 11:50:52;;;;;;;5.83;3.33;;;24.90;99.90;26.30;97039.00;;;;5064225;28;20196;-88
2022/07/15 11:53:44;;;;;;;2.97;2.77;;;24.70;99.90;26.40;97042.00;;;;5063466;28;20200;-89
2022/07/15 11:56:32;;;;;;;3.77;2.77;;;24.60;99.90;26.60;97038.00;;;;5061848;28;20204;-89
2022/07/15 11:59:25;;;;;;;4.10;3.20;;;24.70;99.90;26.40;97034.00;;;;5060648;28;20578;-89
2022/07/15 12:02:15;;;;;;;3.43;3.13;;;24.70;99.90;26.00;97042.00;;;;5062639;28;20198;-86
2022/07/15 12:05:06;;;;;;;4.57;2.90;;;24.60;99.90;26.10;97044.00;;;;5064181;28;20547;-87
2022/07/15 12:07:55;;;;;;;3.20;2.90;;;24.60;99.90;26.30;97045.00;;;;5064548;28;20243;-89
2022/07/15 12:10:44;;;;;;;4.90;3.27;;;24.50;99.90;26.50;97043.00;;;;5069172;28;20204;-87
2022/07/15 12:13:43;;;;;;;3.90;3.57;;;24.60;99.90;26.70;97039.00;;;;5064860;28;20200;-87
2022/07/15 12:16:36;;;;;;;3.97;3.27;;;24.70;99.90;26.20;97047.00;;;;5067046;28;20208;-88
2022/07/15 12:19:27;;;;;;;7.70;2.80;;;24.70;99.90;26.40;97048.00;;;;5062254;28;20300;-88
2022/07/15 12:22:16;;;;;;;3.60;3.00;;;24.60;99.90;26.30;97056.00;;;;5064539;28;20215;-88
2022/07/15 12:25:07;;;;;;;4.47;3.20;;;24.60;99.90;26.00;97055.00;;;;5061671;28;20199;-88
2022/07/15 12:27:58;;;;;;;3.70;3.47;;;24.40;99.90;25.80;97057.00;;;;5066142;28;20242;-88
2022/07/15 12:30:47;;;;;;;5.67;2.80;;;24.30;99.90;25.50;97055.00;;;;5060353;28;20216;-87
2022/07/15 12:33:37;;;;;;;4.53;2.70;;;24.20;99.90;25.70;97052.00;;;;5060750;28;20200;-87
2022/07/15 12:36:29;;;;;;;3.07;2.87;;;24.10;99.90;25.80;97041.00;;;;5059247;28;20203;-87
2022/07/15 12:39:18;;;;;;;6.70;2.90;;;24.00;99.90;25.70;97039.00;;;;5059526;28;20692;-87
2022/07/15 12:42:10;;;;;;;6.43;3.20;;;24.10;99.90;25.60;97051.00;;;;5060896;28;20200;-87
2022/07/15 12:45:11;;;;;;;4.63;3.50;;;24.00;99.90;25.60;97052.00;;;;5058919;28;20219;-87
2022/07/15 12:48:03;;;;;;;4.27;3.87;;;23.90;99.90;25.50;97055.00;;;;5062387;28;20240;-87
2022/07/15 12:51:00;;;;;;;4.00;3.40;;;23.90;99.90;25.70;97044.00;;;;5061057;28;20214;-87
2022/07/15 12:53:49;;;;;;;5.07;3.33;;;23.90;99.90;25.90;97031.00;;;;5063319;28;20252;-88
2022/07/15 12:56:51;;;;;;;6.57;3.40;;;23.90;99.90;26.30;97019.00;;;;5062375;28;20228;-88